Tionesta, Pennsylvania
Current Conditions -  °F | °C
As of 5:55 PM on Tuesday 27 Jan 2015 (Local Time) from KFKL Reporting Station
Overcast Overcast  
Wind Chill:   Ceiling: 1500
Heat Index: 16°   Visibility: 10mi
Dew Point:   Wind: 7mph
Humidity: 73%   Direction: 320°NW
Pressure: 30.01"   Gusts: 16mph
Location:  41.5°N, 79.46°W
Report Text: KFKL 272255Z AUTO 32006G14KT 10SM OVC015 M09/M13 A3001 RMK AO1
Loading
Personal Weather Stations






























Interactive Weather Map New forecast layout! Learn more

10-Day Weather Forecast

Advertisements
Track Severe Weather on mobile